createdAt,value
2017-12-12T00:02:15.299Z,989.23
2017-12-12T00:07:15.249Z,989.32
2017-12-12T00:12:15.172Z,989.44
2017-12-12T00:17:15.106Z,989.56
2017-12-12T00:22:15.044Z,989.72
2017-12-12T00:27:14.971Z,989.98
2017-12-12T00:32:14.901Z,990.29
2017-12-12T00:37:14.836Z,990.41
2017-12-12T00:42:14.767Z,990.57
2017-12-12T00:47:14.695Z,990.65
2017-12-12T00:52:14.623Z,990.75
2017-12-12T00:57:14.558Z,990.87
2017-12-12T01:02:14.491Z,991.04
2017-12-12T01:07:14.416Z,991.15
2017-12-12T01:12:14.384Z,991.15
2017-12-12T01:17:14.293Z,991.31
2017-12-12T01:22:14.209Z,991.35
2017-12-12T01:27:14.139Z,991.47
2017-12-12T01:32:14.072Z,991.66
2017-12-12T01:37:14.003Z,991.84
2017-12-12T01:42:13.933Z,991.99
2017-12-12T01:47:13.872Z,992.09
2017-12-12T01:52:13.796Z,992.15
2017-12-12T01:57:13.722Z,992.25
2017-12-12T02:02:13.654Z,992.36
2017-12-12T02:07:13.584Z,992.41
2017-12-12T02:12:13.521Z,992.46
2017-12-12T02:17:13.440Z,992.56
2017-12-12T02:22:13.370Z,992.73
2017-12-12T02:27:13.304Z,992.96
2017-12-12T02:32:13.245Z,993.18
2017-12-12T02:37:13.163Z,993.32
2017-12-12T02:42:13.093Z,993.36
2017-12-12T02:47:13.036Z,993.48
2017-12-12T02:52:12.948Z,993.58
2017-12-12T02:57:12.877Z,993.65
2017-12-12T03:02:12.806Z,993.84
2017-12-12T03:07:12.734Z,993.84
2017-12-12T03:12:12.664Z,994.02
2017-12-12T03:17:12.594Z,994.12
2017-12-12T03:22:12.590Z,994.38
2017-12-12T03:27:12.454Z,994.65
2017-12-12T03:32:12.377Z,994.72
2017-12-12T03:37:12.311Z,994.99
2017-12-12T03:42:12.239Z,995.18
2017-12-12T03:47:12.165Z,995.3
2017-12-12T03:52:12.093Z,995.51
2017-12-12T03:57:12.023Z,995.57
2017-12-12T04:02:11.955Z,995.63
2017-12-12T04:07:11.873Z,995.81
2017-12-12T04:12:11.803Z,996.03
2017-12-12T04:17:11.728Z,996.26
2017-12-12T04:22:11.673Z,996.41
2017-12-12T04:27:11.566Z,996.66
2017-12-12T04:32:11.490Z,996.77
2017-12-12T04:37:11.424Z,996.86
2017-12-12T04:42:11.334Z,997.05
2017-12-12T04:47:11.265Z,997.21
2017-12-12T04:52:11.187Z,997.45
2017-12-12T04:57:11.119Z,997.56
2017-12-12T05:02:11.047Z,997.67
2017-12-12T05:07:10.976Z,997.79
2017-12-12T05:12:10.906Z,997.89
2017-12-12T05:17:10.833Z,998.03
2017-12-12T05:22:10.763Z,998.1
2017-12-12T05:27:10.691Z,998.29
2017-12-12T05:32:10.620Z,998.33
2017-12-12T05:37:10.553Z,998.53
2017-12-12T05:42:10.482Z,998.72
2017-12-12T05:47:10.412Z,998.87
2017-12-12T05:52:10.341Z,998.99
2017-12-12T05:57:10.279Z,999.05
2017-12-12T06:02:10.206Z,999.53
2017-12-12T06:07:10.134Z,999.62
2017-12-12T06:12:10.072Z,999.85
2017-12-12T06:17:10.003Z,999.99
2017-12-12T06:22:09.938Z,1000.04
2017-12-12T06:27:09.872Z,1000.04
2017-12-12T06:32:09.848Z,1000.16
2017-12-12T06:37:09.750Z,1000.25
2017-12-12T06:42:09.672Z,1000.41
2017-12-12T06:47:09.607Z,1000.51
2017-12-12T06:52:09.537Z,1000.67
2017-12-12T06:57:09.478Z,1000.73
2017-12-12T07:02:09.404Z,1000.98
2017-12-12T07:07:09.332Z,1001.03
2017-12-12T07:12:09.272Z,1001.1
2017-12-12T07:17:09.206Z,1001.26
2017-12-12T07:22:09.130Z,1001.38
2017-12-12T07:27:09.066Z,1001.54
2017-12-12T07:32:08.992Z,1001.68
2017-12-12T07:37:08.938Z,1001.85
2017-12-12T07:42:08.855Z,1001.93
2017-12-12T07:47:08.792Z,1002.07
2017-12-12T07:52:08.719Z,1002.36
2017-12-12T07:57:08.653Z,1002.53
2017-12-12T08:02:08.587Z,1002.74
2017-12-12T08:07:08.519Z,1002.96
2017-12-12T08:12:08.450Z,1003.13
2017-12-12T08:17:08.440Z,1003.31
2017-12-12T08:22:08.326Z,1003.47
2017-12-12T08:27:08.259Z,1003.58
2017-12-12T08:32:08.182Z,1003.65
2017-12-12T08:37:08.111Z,1003.67
2017-12-12T08:42:08.051Z,1003.8
2017-12-12T08:47:07.975Z,1003.94
2017-12-12T08:52:07.987Z,1003.98
2017-12-12T08:57:07.840Z,1004.08
2017-12-12T09:02:07.773Z,1004.19
2017-12-12T09:07:07.716Z,1004.2
2017-12-12T09:12:07.646Z,1004.37
2017-12-12T09:17:07.573Z,1004.44
2017-12-12T09:22:07.507Z,1004.74
2017-12-12T09:27:07.443Z,1004.96
2017-12-12T09:32:07.369Z,1005.1
2017-12-12T09:37:07.307Z,1005.34
2017-12-12T09:42:07.235Z,1005.42
2017-12-12T09:47:07.175Z,1005.53
2017-12-12T09:52:07.103Z,1005.6
2017-12-12T09:57:07.032Z,1005.75
2017-12-12T10:02:06.963Z,1005.88
2017-12-12T10:07:06.906Z,1005.97
2017-12-12T10:12:06.831Z,1005.99
2017-12-12T10:17:06.762Z,1006.01
2017-12-12T10:22:06.696Z,1006.12
2017-12-12T10:27:06.732Z,1006.15
2017-12-12T10:32:06.564Z,1006.23
2017-12-12T10:37:06.505Z,1006.29
2017-12-12T10:42:06.437Z,1006.39
2017-12-12T10:47:06.372Z,1006.45
2017-12-12T10:52:06.297Z,1006.56
2017-12-12T10:57:06.230Z,1006.62
2017-12-12T11:02:06.179Z,1006.75
2017-12-12T11:07:06.093Z,1006.84
2017-12-12T11:12:06.026Z,1006.84
2017-12-12T11:17:05.962Z,1006.89
2017-12-12T11:22:05.916Z,1006.99
2017-12-12T11:27:05.822Z,1006.98
2017-12-12T11:32:05.960Z,1007.08
2017-12-12T11:37:05.701Z,1007.13
2017-12-12T11:42:05.628Z,1007.21
2017-12-12T11:47:05.566Z,1007.26
2017-12-12T11:52:05.503Z,1007.26
2017-12-12T11:57:05.442Z,1007.34
2017-12-12T12:02:05.392Z,1007.38
2017-12-12T12:07:05.330Z,1007.51
2017-12-12T12:12:05.267Z,1007.51
2017-12-12T12:17:05.212Z,1007.63
2017-12-12T12:22:05.150Z,1007.66
2017-12-12T12:27:05.091Z,1007.66
2017-12-12T12:32:05.025Z,1007.74
2017-12-12T12:37:04.964Z,1007.84
2017-12-12T12:42:04.892Z,1007.99
2017-12-12T12:47:04.832Z,1008.12
2017-12-12T12:52:04.759Z,1008.23
2017-12-12T12:57:04.701Z,1008.22
2017-12-12T13:02:04.685Z,1008.24
2017-12-12T13:07:04.567Z,1008.36
2017-12-12T13:12:04.505Z,1008.39
2017-12-12T13:17:04.439Z,1008.52
2017-12-12T13:22:04.393Z,1008.56
2017-12-12T13:27:04.308Z,1008.69
2017-12-12T13:32:04.243Z,1008.75
2017-12-12T13:37:04.173Z,1008.81
2017-12-12T13:42:04.113Z,1008.84
2017-12-12T13:47:04.037Z,1008.94
2017-12-12T13:52:03.977Z,1009.07
2017-12-12T13:57:03.905Z,1009.17
2017-12-12T14:02:03.850Z,1009.26
2017-12-12T14:07:03.767Z,1009.4
2017-12-12T14:12:03.699Z,1009.57
2017-12-12T14:17:03.631Z,1009.83
2017-12-12T14:22:03.563Z,1010.15
2017-12-12T14:27:03.499Z,1010.34
2017-12-12T14:32:03.435Z,1010.49
2017-12-12T14:37:03.371Z,1010.55
2017-12-12T14:42:03.299Z,1010.66
2017-12-12T14:47:03.237Z,1010.75
2017-12-12T14:52:03.167Z,1010.78
2017-12-12T14:57:03.109Z,1010.79
2017-12-12T15:02:03.041Z,1010.91
2017-12-12T15:07:02.990Z,1010.78
2017-12-12T15:12:02.910Z,1011.01
2017-12-12T15:17:02.845Z,1011.11
2017-12-12T15:22:02.777Z,1011.22
2017-12-12T15:27:02.706Z,1011.38
2017-12-12T15:32:02.656Z,1011.38
2017-12-12T15:37:02.579Z,1011.41
2017-12-12T15:42:02.538Z,1011.52
2017-12-12T15:47:02.448Z,1011.55
2017-12-12T15:52:02.386Z,1011.69
2017-12-12T15:57:02.322Z,1011.78
2017-12-12T16:02:02.263Z,1011.9
2017-12-12T16:07:02.194Z,1011.88
2017-12-12T16:12:02.128Z,1011.93
2017-12-12T16:17:02.065Z,1011.94
2017-12-12T16:22:01.994Z,1011.92
2017-12-12T16:27:01.932Z,1012.01
2017-12-12T16:32:01.864Z,1012.03
2017-12-12T16:37:01.798Z,1012.06
2017-12-12T16:42:01.735Z,1012.07
2017-12-12T16:47:01.666Z,1012.05
2017-12-12T16:52:01.604Z,1012.03
2017-12-12T16:57:01.564Z,1012.13
2017-12-12T17:02:01.482Z,1012.15
2017-12-12T17:07:01.417Z,1012.22
2017-12-12T17:12:01.355Z,1012.18
2017-12-12T17:17:01.289Z,1012.26
2017-12-12T17:22:01.224Z,1012.34
2017-12-12T17:27:01.168Z,1012.4
2017-12-12T17:32:01.098Z,1012.42
2017-12-12T17:37:01.047Z,1012.52
2017-12-12T17:42:00.972Z,1012.59
2017-12-12T17:47:00.910Z,1012.64
2017-12-12T17:52:00.851Z,1012.7
2017-12-12T17:57:00.788Z,1012.77
2017-12-12T18:02:00.803Z,1012.83
2017-12-12T18:07:00.678Z,1012.81
2017-12-12T18:12:00.608Z,1012.87
2017-12-12T18:17:00.560Z,1012.94
2017-12-12T18:22:00.488Z,1012.86
2017-12-12T18:27:00.462Z,1012.85
2017-12-12T18:32:00.376Z,1012.9
2017-12-12T18:37:00.348Z,1012.97
2017-12-12T18:42:00.259Z,1012.98
2017-12-12T18:47:00.211Z,1013.01
2017-12-12T18:52:00.164Z,1012.99
2017-12-12T18:57:00.082Z,1013.01
2017-12-12T19:02:00.027Z,1013.04
2017-12-12T19:06:59.966Z,1013.06
2017-12-12T19:11:59.926Z,1013.04
2017-12-12T19:16:59.850Z,1013.1
2017-12-12T19:21:59.794Z,1013.15
2017-12-12T19:26:59.748Z,1013.13
2017-12-12T19:31:59.678Z,1013.19
2017-12-12T19:36:59.664Z,1013.25
2017-12-12T19:41:59.590Z,1013.17
2017-12-12T19:46:59.530Z,1013.22
2017-12-12T19:51:59.468Z,1013.25
2017-12-12T19:56:59.394Z,1013.3
2017-12-12T20:01:59.370Z,1013.3
2017-12-12T20:06:59.323Z,1013.47
2017-12-12T20:11:59.246Z,1013.46
2017-12-12T20:16:59.154Z,1013.39
2017-12-12T20:21:59.190Z,1013.38
2017-12-12T20:26:59.075Z,1013.33
2017-12-12T20:31:59.017Z,1013.27
2017-12-12T20:36:58.966Z,1013.24
2017-12-12T20:41:58.877Z,1013.23
2017-12-12T20:46:58.809Z,1013.29
2017-12-12T20:51:58.795Z,1013.3
2017-12-12T20:56:58.725Z,1013.32
2017-12-12T21:01:58.654Z,1013.28
2017-12-12T21:06:58.666Z,1013.24
2017-12-12T21:11:58.530Z,1013.35
2017-12-12T21:16:58.480Z,1013.42
2017-12-12T21:21:58.428Z,1013.48
2017-12-12T21:26:58.367Z,1013.48
2017-12-12T21:31:58.305Z,1013.37
2017-12-12T21:36:58.253Z,1013.36
2017-12-12T21:41:58.204Z,1013.42
2017-12-12T21:46:58.147Z,1013.4
2017-12-12T21:51:58.089Z,1013.37
2017-12-12T21:56:58.039Z,1013.4
2017-12-12T22:01:57.984Z,1013.44
2017-12-12T22:06:57.922Z,1013.45
2017-12-12T22:11:57.858Z,1013.38
2017-12-12T22:16:57.816Z,1013.4
2017-12-12T22:21:57.747Z,1013.43
2017-12-12T22:26:57.694Z,1013.42
2017-12-12T22:31:57.631Z,1013.36
2017-12-12T22:36:57.584Z,1013.33
2017-12-12T22:41:57.512Z,1013.2
2017-12-12T22:46:57.454Z,1013.13
2017-12-12T22:51:57.388Z,1013.16
2017-12-12T22:56:57.326Z,1013.06
2017-12-12T23:01:57.264Z,1013.09
2017-12-12T23:06:57.204Z,1013.04
2017-12-12T23:11:57.220Z,1013.05
2017-12-12T23:16:57.078Z,1012.97
2017-12-12T23:21:57.013Z,1012.8
2017-12-12T23:26:56.953Z,1012.78
2017-12-12T23:31:56.891Z,1012.67
2017-12-12T23:36:56.828Z,1012.62
2017-12-12T23:41:56.768Z,1012.54
2017-12-12T23:46:56.704Z,1012.64
2017-12-12T23:51:56.639Z,1012.54
2017-12-12T23:56:56.572Z,1012.47
